Catlettsburg, Kentucky
Current Conditions -  °F | °C
As of 12:51 AM on Saturday 29 Nov 2014 (Local Time) from KHTS Reporting Station
Clear Clear  
Wind Chill: 23°   Ceiling: Unl
Heat Index: 29°   Visibility: 10mi
Dew Point: 20°   Wind: 6mph
Humidity: 69%   Direction: 110°ESE
Pressure: 30.14"   Gusts: NA
Location:  38.4°N, 82.6°W
Report Text: KHTS 290551Z 11005KT 10SM CLR M02/M07 A3014 RMK AO2 SLP212 T10171067 11006 21028 56015
Loading
Personal Weather Stations






























Interactive Weather Map New forecast layout! Learn more

10-Day Weather Forecast

Advertisements
Track Severe Weather on mobile